Time;durP1;ratioP1;P1;durP2;ratioP2;P2;SDS_P1;SDS_P2;PMS_P1;PMS_P2;Temp;Humidity;BMP_temperature;BMP_pressure;BME280_temperature;BME280_humidity;BME280_pressure;Samples;Min_cycle;Max_cycle;Signal;HPM_P1;HPM_P2
2022/06/29 00:00:17;;;;;;;;;;;28.80;91.30;;;;;;5057955;28;19912;-49
2022/06/29 00:02:44;;;;;;;;;;;28.70;91.40;;;;;;5064486;28;19923;-47
2022/06/29 00:05:15;;;;;;;;;;;28.60;91.50;;;;;;5064077;28;19967;-55
2022/06/29 00:07:41;;;;;;;;;;;28.60;91.80;;;;;;5064118;28;20131;-51
2022/06/29 00:10:09;;;;;;;;;;;28.50;91.80;;;;;;5063992;28;20097;-53
2022/06/29 00:12:35;;;;;;;;;;;28.50;92.00;;;;;;5064310;28;19901;-50
2022/06/29 00:15:04;;;;;;;;;;;28.50;92.00;;;;;;5064000;28;19943;-54
2022/06/29 00:17:31;;;;;;;;;;;28.50;91.90;;;;;;5064161;28;20170;-50
2022/06/29 00:19:58;;;;;;;;;;;28.50;91.90;;;;;;5064157;28;19954;-55
2022/06/29 00:22:25;;;;;;;;;;;28.50;91.80;;;;;;5064282;28;19901;-49
2022/06/29 00:24:51;;;;;;;;;;;28.50;91.70;;;;;;5064430;28;19955;-52
2022/06/29 00:27:17;;;;;;;;;;;28.60;91.70;;;;;;5064240;28;20178;-50
2022/06/29 00:29:44;;;;;;;;;;;28.60;91.70;;;;;;5064263;28;19913;-49
2022/06/29 00:32:10;;;;;;;;;;;28.60;91.80;;;;;;5064205;28;19900;-51
2022/06/29 00:34:36;;;;;;;;;;;28.60;91.80;;;;;;5064212;28;19909;-56
2022/06/29 00:37:03;;;;;;;;;;;28.60;91.80;;;;;;5063817;28;19928;-49
2022/06/29 00:39:31;;;;;;;;;;;28.60;91.80;;;;;;5063206;28;20095;-50
2022/06/29 00:41:58;;;;;;;;;;;28.60;91.80;;;;;;5062648;28;19900;-54
2022/06/29 00:44:24;;;;;;;;;;;28.60;91.90;;;;;;5063937;28;19932;-53
2022/06/29 00:46:53;;;;;;;;;;;28.60;91.80;;;;;;5063779;28;19916;-48
2022/06/29 00:49:20;;;;;;;;;;;28.60;91.80;;;;;;5064480;28;19900;-54
2022/06/29 00:51:47;;;;;;;;;;;28.60;91.80;;;;;;5063797;28;19915;-54
2022/06/29 00:54:17;;;;;;;;;;;28.60;91.80;;;;;;5063878;28;20211;-53
2022/06/29 00:56:43;;;;;;;;;;;28.60;91.80;;;;;;5064829;28;19913;-62
2022/06/29 00:59:11;;;;;;;;;;;28.60;91.80;;;;;;5067924;28;19932;-52
2022/06/29 01:01:38;;;;;;;;;;;28.60;91.80;;;;;;5067817;28;20197;-50
2022/06/29 01:04:05;;;;;;;;;;;28.60;91.90;;;;;;5068429;28;19926;-49
2022/06/29 01:06:32;;;;;;;;;;;28.60;92.00;;;;;;5068360;28;19905;-53
2022/06/29 01:08:58;;;;;;;;;;;28.60;92.00;;;;;;5068315;28;19932;-59
2022/06/29 01:11:24;;;;;;;;;;;28.60;92.00;;;;;;5067756;28;19905;-51
2022/06/29 01:13:50;;;;;;;;;;;28.60;92.00;;;;;;5068282;28;19936;-52
2022/06/29 01:16:17;;;;;;;;;;;28.60;92.10;;;;;;5067034;28;19987;-60
2022/06/29 01:18:44;;;;;;;;;;;28.60;92.20;;;;;;5067800;28;19908;-61
2022/06/29 01:21:13;;;;;;;;;;;28.50;92.40;;;;;;5067331;28;19912;-60
2022/06/29 01:23:39;;;;;;;;;;;28.50;92.60;;;;;;5067207;28;19958;-62
2022/06/29 01:26:06;;;;;;;;;;;28.50;92.70;;;;;;5067158;28;19967;-59
2022/06/29 01:28:32;;;;;;;;;;;28.40;93.00;;;;;;5067549;28;19905;-59
2022/06/29 01:30:59;;;;;;;;;;;28.40;93.10;;;;;;5063401;28;19909;-61
2022/06/29 01:33:26;;;;;;;;;;;28.30;93.20;;;;;;5064109;28;19905;-61
2022/06/29 01:35:52;;;;;;;;;;;28.30;93.20;;;;;;5066875;28;19915;-61
2022/06/29 01:38:19;;;;;;;;;;;28.30;93.20;;;;;;5066918;28;19905;-61
2022/06/29 01:40:45;;;;;;;;;;;28.20;93.30;;;;;;5067099;28;19912;-62
2022/06/29 01:43:12;;;;;;;;;;;28.20;93.40;;;;;;5067170;28;19905;-62
2022/06/29 01:45:38;;;;;;;;;;;28.20;93.40;;;;;;5066785;28;19969;-61
2022/06/29 01:48:04;;;;;;;;;;;28.20;93.40;;;;;;5067414;28;19901;-61
2022/06/29 01:50:31;;;;;;;;;;;28.20;93.50;;;;;;5066837;28;20241;-60
2022/06/29 01:52:57;;;;;;;;;;;28.20;93.60;;;;;;5066595;28;19972;-60
2022/06/29 01:55:23;;;;;;;;;;;28.20;93.60;;;;;;5065718;28;19908;-58
2022/06/29 01:57:49;;;;;;;;;;;28.20;93.50;;;;;;5066692;28;19978;-60
2022/06/29 02:00:15;;;;;;;;;;;28.10;93.40;;;;;;5065740;28;20074;-61
2022/06/29 02:02:41;;;;;;;;;;;28.10;93.50;;;;;;5058379;28;19916;-62
2022/06/29 02:05:08;;;;;;;;;;;28.00;93.50;;;;;;5063506;28;19963;-61
2022/06/29 02:07:34;;;;;;;;;;;28.00;93.50;;;;;;5064620;28;19911;-59
2022/06/29 02:10:00;;;;;;;;;;;28.00;93.60;;;;;;5063013;28;19909;-59
2022/06/29 02:12:26;;;;;;;;;;;28.10;93.60;;;;;;5055556;28;19905;-55
2022/06/29 02:14:53;;;;;;;;;;;28.00;93.50;;;;;;5063729;28;19904;-53
2022/06/29 02:17:19;;;;;;;;;;;28.10;93.40;;;;;;5064725;28;20215;-51
2022/06/29 02:19:45;;;;;;;;;;;28.10;93.30;;;;;;5065107;28;19905;-53
2022/06/29 02:22:12;;;;;;;;;;;28.10;93.20;;;;;;5065184;28;19907;-51
2022/06/29 02:24:38;;;;;;;;;;;28.20;93.20;;;;;;5064949;28;19905;-49
2022/06/29 02:27:04;;;;;;;;;;;28.20;93.10;;;;;;5065039;28;19900;-48
2022/06/29 02:29:30;;;;;;;;;;;28.20;93.10;;;;;;5065096;28;20105;-52
2022/06/29 02:34:43;;;;;;;;;;;28.20;93.10;;;;;;5056673;28;19915;-52
2022/06/29 02:37:14;;;;;;;;;;;28.20;93.10;;;;;;5053562;28;20153;-51
2022/06/29 02:39:42;;;;;;;;;;;28.20;93.00;;;;;;5044974;28;19905;-53
2022/06/29 02:42:09;;;;;;;;;;;28.20;92.90;;;;;;5044975;28;20132;-49
2022/06/29 02:44:36;;;;;;;;;;;28.20;92.90;;;;;;5045160;28;19905;-50
2022/06/29 02:47:02;;;;;;;;;;;28.20;92.90;;;;;;5044503;28;19951;-52
2022/06/29 02:49:28;;;;;;;;;;;28.20;92.80;;;;;;5044848;28;19987;-53
2022/06/29 02:51:54;;;;;;;;;;;28.20;92.70;;;;;;5044755;28;19908;-50
2022/06/29 02:54:21;;;;;;;;;;;28.20;92.70;;;;;;5056308;28;19909;-50
2022/06/29 02:56:47;;;;;;;;;;;28.20;92.70;;;;;;5063571;28;19913;-53
2022/06/29 02:59:13;;;;;;;;;;;28.20;92.60;;;;;;5065159;28;19912;-52
2022/06/29 03:01:39;;;;;;;;;;;28.20;92.60;;;;;;4979985;28;2425371;-53
2022/06/29 03:04:05;;;;;;;;;;;28.20;92.50;;;;;;5065985;28;19911;-52
2022/06/29 03:06:32;;;;;;;;;;;28.20;92.40;;;;;;5065188;28;19913;-50
2022/06/29 03:08:58;;;;;;;;;;;28.20;92.30;;;;;;5065836;28;19912;-53
2022/06/29 03:11:24;;;;;;;;;;;28.20;92.30;;;;;;5065546;28;20105;-53
2022/06/29 03:13:50;;;;;;;;;;;28.20;92.20;;;;;;5065825;28;19909;-57
2022/06/29 03:16:16;;;;;;;;;;;28.20;92.30;;;;;;5065115;28;19909;-51
2022/06/29 03:18:42;;;;;;;;;;;28.20;92.30;;;;;;5065406;28;19936;-49
2022/06/29 03:21:09;;;;;;;;;;;28.20;92.30;;;;;;5065211;28;19912;-54
2022/06/29 03:23:35;;;;;;;;;;;28.20;92.30;;;;;;5065052;28;19908;-49
2022/06/29 03:26:01;;;;;;;;;;;28.20;92.40;;;;;;5065241;28;19911;-52
2022/06/29 03:28:27;;;;;;;;;;;28.20;92.40;;;;;;5065441;28;19904;-50
2022/06/29 03:30:53;;;;;;;;;;;28.20;92.40;;;;;;5064909;28;19932;-50
2022/06/29 03:33:21;;;;;;;;;;;28.20;92.40;;;;;;5065397;28;19968;-50
2022/06/29 03:35:47;;;;;;;;;;;28.20;92.50;;;;;;5064981;28;19905;-52
2022/06/29 03:38:13;;;;;;;;;;;28.10;92.40;;;;;;5065195;28;19920;-53
2022/06/29 03:40:39;;;;;;;;;;;28.10;92.50;;;;;;5064960;28;19904;-54
2022/06/29 03:43:06;;;;;;;;;;;28.10;92.60;;;;;;5065277;28;19905;-50
2022/06/29 03:45:32;;;;;;;;;;;28.10;92.70;;;;;;5064562;28;19983;-53
2022/06/29 03:47:58;;;;;;;;;;;28.10;92.70;;;;;;5065166;28;20243;-49
2022/06/29 03:50:24;;;;;;;;;;;28.10;92.70;;;;;;5064998;28;20156;-56
2022/06/29 03:52:50;;;;;;;;;;;28.10;92.70;;;;;;5065017;28;19912;-51
2022/06/29 03:55:16;;;;;;;;;;;28.10;92.80;;;;;;5064668;28;19912;-50
2022/06/29 03:57:42;;;;;;;;;;;28.10;92.80;;;;;;5064750;28;19909;-53
2022/06/29 04:00:12;;;;;;;;;;;28.10;92.80;;;;;;5064602;28;19904;-49
2022/06/29 04:02:39;;;;;;;;;;;28.10;92.80;;;;;;5064659;28;19913;-53
2022/06/29 04:05:06;;;;;;;;;;;28.10;92.80;;;;;;5064786;28;20192;-51
2022/06/29 04:07:32;;;;;;;;;;;28.10;92.90;;;;;;5064260;28;19900;-51
2022/06/29 04:10:01;;;;;;;;;;;28.10;92.90;;;;;;5064256;28;19915;-48
2022/06/29 04:12:31;;;;;;;;;;;28.10;93.00;;;;;;5064385;28;20173;-48
2022/06/29 04:14:58;;;;;;;;;;;28.10;93.00;;;;;;5064324;28;19915;-53
2022/06/29 04:17:24;;;;;;;;;;;28.00;93.00;;;;;;5064192;28;19905;-50
2022/06/29 04:19:53;;;;;;;;;;;28.00;92.90;;;;;;5064245;28;19936;-53
2022/06/29 04:22:20;;;;;;;;;;;28.00;92.90;;;;;;5064298;28;20089;-49
2022/06/29 04:24:46;;;;;;;;;;;28.00;93.00;;;;;;5064026;28;19943;-55
2022/06/29 04:27:13;;;;;;;;;;;28.00;93.00;;;;;;5064074;28;19943;-53
2022/06/29 04:29:39;;;;;;;;;;;28.00;93.00;;;;;;5064121;28;20192;-51
2022/06/29 04:32:05;;;;;;;;;;;28.00;93.10;;;;;;5064074;28;20119;-51
2022/06/29 04:34:31;;;;;;;;;;;28.00;93.10;;;;;;5064237;28;20193;-53
2022/06/29 04:36:58;;;;;;;;;;;28.00;93.10;;;;;;5064020;28;19975;-57
2022/06/29 04:39:24;;;;;;;;;;;28.00;93.20;;;;;;5064343;28;20077;-49
2022/06/29 04:41:52;;;;;;;;;;;28.00;93.10;;;;;;5063958;28;19908;-56
2022/06/29 04:44:18;;;;;;;;;;;27.90;93.10;;;;;;5064620;28;19901;-50
2022/06/29 04:46:45;;;;;;;;;;;27.90;93.10;;;;;;5062738;28;19909;-49
2022/06/29 04:49:11;;;;;;;;;;;27.90;93.10;;;;;;5063219;28;20088;-48
2022/06/29 04:51:37;;;;;;;;;;;27.90;93.10;;;;;;5062420;28;20100;-50
2022/06/29 04:54:04;;;;;;;;;;;27.90;93.00;;;;;;5062506;28;19900;-48
2022/06/29 04:56:32;;;;;;;;;;;27.90;93.00;;;;;;5062105;28;19919;-56
2022/06/29 04:58:59;;;;;;;;;;;27.90;92.90;;;;;;5062519;28;20177;-49
2022/06/29 05:01:25;;;;;;;;;;;27.90;92.80;;;;;;5061935;28;20117;-54
2022/06/29 05:03:53;;;;;;;;;;;27.90;92.70;;;;;;5062460;28;20176;-51
2022/06/29 05:06:20;;;;;;;;;;;27.90;92.70;;;;;;5063139;28;20291;-49
2022/06/29 05:08:47;;;;;;;;;;;27.90;92.80;;;;;;5064044;28;19905;-53
2022/06/29 05:11:17;;;;;;;;;;;27.90;92.40;;;;;;5063603;28;19911;-50
2022/06/29 05:13:44;;;;;;;;;;;27.80;92.40;;;;;;5064008;28;19911;-49
2022/06/29 05:16:11;;;;;;;;;;;27.80;92.30;;;;;;5063591;28;19909;-52
2022/06/29 05:18:37;;;;;;;;;;;27.80;92.20;;;;;;5063931;28;19927;-52
2022/06/29 05:21:03;;;;;;;;;;;27.80;92.10;;;;;;5063943;28;19986;-49
2022/06/29 05:23:31;;;;;;;;;;;27.80;92.00;;;;;;5063781;28;19912;-47
2022/06/29 05:25:58;;;;;;;;;;;27.80;92.00;;;;;;5063396;28;19940;-53
2022/06/29 05:28:25;;;;;;;;;;;27.80;91.90;;;;;;5063929;28;19921;-50
2022/06/29 05:30:52;;;;;;;;;;;27.80;91.80;;;;;;5063628;28;19971;-52
2022/06/29 05:33:18;;;;;;;;;;;27.80;91.80;;;;;;5063628;28;20035;-58
2022/06/29 05:35:44;;;;;;;;;;;27.80;91.70;;;;;;5063743;28;20144;-53
2022/06/29 05:38:10;;;;;;;;;;;27.80;91.60;;;;;;5063363;28;19912;-56
2022/06/29 05:40:37;;;;;;;;;;;27.80;91.50;;;;;;5063585;28;19904;-48
2022/06/29 05:43:03;;;;;;;;;;;27.80;91.50;;;;;;5065807;28;19905;-50
2022/06/29 05:45:29;;;;;;;;;;;27.80;91.40;;;;;;5067256;28;20082;-49
2022/06/29 05:47:56;;;;;;;;;;;27.80;91.30;;;;;;5067401;28;19904;-56
2022/06/29 05:50:23;;;;;;;;;;;27.80;91.30;;;;;;5067073;28;20189;-52
2022/06/29 05:52:49;;;;;;;;;;;27.80;91.30;;;;;;5066980;28;19954;-51
2022/06/29 05:55:15;;;;;;;;;;;27.80;91.10;;;;;;5066748;28;19905;-53
2022/06/29 05:57:41;;;;;;;;;;;27.80;91.10;;;;;;5066843;28;19983;-56
2022/06/29 06:00:08;;;;;;;;;;;27.80;91.10;;;;;;5067167;28;19943;-50
2022/06/29 06:02:34;;;;;;;;;;;27.80;90.90;;;;;;5066940;28;19913;-49
2022/06/29 06:05:00;;;;;;;;;;;27.80;91.00;;;;;;5066789;28;19972;-59
2022/06/29 06:07:26;;;;;;;;;;;27.80;90.90;;;;;;5066980;28;19936;-50
2022/06/29 06:09:53;;;;;;;;;;;27.70;90.80;;;;;;5066649;28;19905;-49
2022/06/29 06:12:19;;;;;;;;;;;27.70;90.80;;;;;;5067221;28;19900;-54
2022/06/29 06:14:45;;;;;;;;;;;27.70;90.80;;;;;;5066976;28;19943;-52
2022/06/29 06:17:11;;;;;;;;;;;27.70;90.80;;;;;;5066924;28;19943;-50
2022/06/29 06:19:37;;;;;;;;;;;27.70;90.80;;;;;;5066869;28;20185;-49
2022/06/29 06:22:04;;;;;;;;;;;27.60;90.80;;;;;;5067239;28;20133;-49
2022/06/29 06:24:30;;;;;;;;;;;27.60;90.70;;;;;;5066814;28;19927;-49
2022/06/29 06:26:56;;;;;;;;;;;27.70;90.80;;;;;;5066940;28;19972;-51
2022/06/29 06:29:22;;;;;;;;;;;27.70;90.80;;;;;;5067096;28;19905;-49
2022/06/29 06:31:48;;;;;;;;;;;27.70;90.80;;;;;;5066610;28;19912;-51
2022/06/29 06:34:14;;;;;;;;;;;27.60;90.70;;;;;;5066942;28;20190;-52
2022/06/29 06:36:40;;;;;;;;;;;27.60;90.60;;;;;;5066378;28;19909;-56
2022/06/29 06:39:07;;;;;;;;;;;27.60;90.60;;;;;;5066398;28;20145;-61
2022/06/29 06:41:33;;;;;;;;;;;27.60;90.50;;;;;;5066272;28;19950;-49
2022/06/29 06:44:00;;;;;;;;;;;27.60;90.50;;;;;;5066686;28;19905;-47
2022/06/29 06:46:28;;;;;;;;;;;27.50;90.50;;;;;;5066520;28;19990;-57
2022/06/29 06:48:54;;;;;;;;;;;27.60;90.40;;;;;;5066390;28;20163;-50
2022/06/29 06:51:21;;;;;;;;;;;27.60;90.50;;;;;;5066247;28;19932;-48
2022/06/29 06:53:47;;;;;;;;;;;27.60;90.50;;;;;;5065555;28;19911;-53
2022/06/29 06:56:14;;;;;;;;;;;27.60;90.50;;;;;;5065308;28;20101;-48
2022/06/29 06:58:41;;;;;;;;;;;27.60;90.50;;;;;;5066543;28;19916;-53
2022/06/29 07:01:08;;;;;;;;;;;27.60;90.50;;;;;;5065775;28;19962;-53
2022/06/29 07:03:37;;;;;;;;;;;27.60;90.40;;;;;;5066462;28;19904;-49
2022/06/29 07:06:04;;;;;;;;;;;27.50;90.30;;;;;;5065897;28;19904;-52
2022/06/29 07:08:31;;;;;;;;;;;27.50;90.40;;;;;;5066287;28;19912;-49
2022/06/29 07:10:58;;;;;;;;;;;27.50;90.50;;;;;;5065650;28;19940;-55
2022/06/29 07:13:24;;;;;;;;;;;27.50;90.60;;;;;;5065886;28;20181;-54
2022/06/29 07:15:51;;;;;;;;;;;27.50;90.70;;;;;;5065729;28;20203;-52
2022/06/29 07:18:17;;;;;;;;;;;27.50;90.80;;;;;;5065696;28;19946;-51
2022/06/29 07:20:43;;;;;;;;;;;27.50;90.90;;;;;;5066014;28;19904;-52
2022/06/29 07:23:09;;;;;;;;;;;27.50;90.90;;;;;;5065666;28;19912;-50
2022/06/29 07:25:35;;;;;;;;;;;27.50;91.00;;;;;;5065481;28;19908;-55
2022/06/29 07:28:01;;;;;;;;;;;27.50;91.10;;;;;;5066062;28;19912;-51
2022/06/29 07:30:28;;;;;;;;;;;27.40;91.10;;;;;;5065665;28;19935;-55
2022/06/29 07:32:54;;;;;;;;;;;27.50;91.10;;;;;;5065492;28;19905;-49
2022/06/29 07:35:20;;;;;;;;;;;27.50;91.20;;;;;;5065909;28;19913;-58
2022/06/29 07:37:46;;;;;;;;;;;27.40;91.20;;;;;;5065397;28;19948;-50
2022/06/29 07:40:13;;;;;;;;;;;27.40;91.20;;;;;;5065238;28;19912;-52
2022/06/29 07:42:39;;;;;;;;;;;27.40;91.20;;;;;;5065238;28;19946;-58
2022/06/29 07:45:08;;;;;;;;;;;27.40;91.20;;;;;;5065102;28;19905;-61
2022/06/29 07:47:34;;;;;;;;;;;27.40;91.20;;;;;;5065037;28;19905;-54
2022/06/29 07:50:01;;;;;;;;;;;27.40;91.20;;;;;;5065127;28;19912;-55
2022/06/29 07:52:27;;;;;;;;;;;27.40;91.10;;;;;;5064950;28;20141;-50
2022/06/29 07:54:53;;;;;;;;;;;27.40;91.10;;;;;;5064802;28;20104;-56
2022/06/29 07:57:19;;;;;;;;;;;27.40;91.00;;;;;;5065002;28;19909;-50
2022/06/29 07:59:46;;;;;;;;;;;27.40;91.00;;;;;;5064884;28;20223;-49
2022/06/29 08:02:13;;;;;;;;;;;27.40;91.00;;;;;;5064912;28;19939;-51
2022/06/29 08:04:39;;;;;;;;;;;27.40;90.80;;;;;;5064601;28;19913;-48
2022/06/29 08:07:05;;;;;;;;;;;27.30;90.80;;;;;;5064497;28;19928;-54
2022/06/29 08:09:32;;;;;;;;;;;27.30;90.70;;;;;;5065003;28;19916;-49
2022/06/29 08:11:58;;;;;;;;;;;27.30;90.60;;;;;;5064726;28;19908;-50
2022/06/29 08:14:24;;;;;;;;;;;27.30;90.50;;;;;;5065460;28;19900;-50
2022/06/29 08:16:50;;;;;;;;;;;27.30;90.60;;;;;;5064799;28;19912;-50
2022/06/29 08:19:16;;;;;;;;;;;27.30;90.60;;;;;;5064978;28;19908;-48
2022/06/29 08:21:42;;;;;;;;;;;27.30;90.50;;;;;;5064552;28;20254;-53
2022/06/29 08:24:09;;;;;;;;;;;27.30;90.50;;;;;;5065024;28;19901;-50
2022/06/29 08:26:35;;;;;;;;;;;27.30;90.60;;;;;;5064446;28;20295;-47
2022/06/29 08:29:01;;;;;;;;;;;27.30;90.60;;;;;;5065448;28;19904;-53
2022/06/29 08:31:27;;;;;;;;;;;27.30;90.60;;;;;;5064304;28;19914;-56
2022/06/29 08:33:53;;;;;;;;;;;27.30;90.50;;;;;;5064554;28;19901;-56
2022/06/29 08:36:19;;;;;;;;;;;27.20;90.60;;;;;;5064680;28;19912;-55
2022/06/29 08:38:45;;;;;;;;;;;27.30;90.60;;;;;;5065015;28;19901;-57
2022/06/29 08:41:12;;;;;;;;;;;27.30;90.60;;;;;;5064852;28;19940;-56
2022/06/29 08:43:38;;;;;;;;;;;27.30;90.60;;;;;;5065199;28;19901;-49
2022/06/29 08:46:04;;;;;;;;;;;27.30;90.60;;;;;;5064518;28;19908;-48
2022/06/29 08:48:30;;;;;;;;;;;27.20;90.60;;;;;;5064876;28;19907;-50
2022/06/29 08:50:56;;;;;;;;;;;27.20;90.50;;;;;;5064730;28;19909;-58
2022/06/29 08:53:23;;;;;;;;;;;27.20;90.60;;;;;;5064555;28;19901;-50
2022/06/29 08:55:50;;;;;;;;;;;27.20;90.60;;;;;;5064192;28;20153;-50
2022/06/29 08:58:16;;;;;;;;;;;27.20;90.60;;;;;;5064179;28;19951;-49
2022/06/29 09:00:42;;;;;;;;;;;27.20;90.60;;;;;;5063840;28;19936;-54
2022/06/29 09:03:10;;;;;;;;;;;27.30;90.70;;;;;;5064610;28;19947;-49
2022/06/29 09:05:39;;;;;;;;;;;27.20;90.70;;;;;;5064186;28;20236;-51
2022/06/29 09:08:05;;;;;;;;;;;27.20;90.90;;;;;;5064028;28;20089;-48
2022/06/29 09:10:32;;;;;;;;;;;27.20;90.70;;;;;;5064147;28;19916;-55
2022/06/29 09:12:58;;;;;;;;;;;27.20;90.80;;;;;;5064042;28;20235;-51
2022/06/29 09:15:30;;;;;;;;;;;27.20;90.90;;;;;;5064114;28;19958;-51
2022/06/29 09:17:57;;;;;;;;;;;27.20;90.80;;;;;;5065630;28;19926;-49
2022/06/29 09:20:23;;;;;;;;;;;27.20;90.80;;;;;;5068219;28;19991;-52
2022/06/29 09:22:53;;;;;;;;;;;27.20;90.80;;;;;;5067948;28;19908;-53
2022/06/29 09:25:26;;;;;;;;;;;27.20;90.80;;;;;;5067956;28;19909;-51
2022/06/29 09:27:55;;;;;;;;;;;27.20;90.90;;;;;;5068146;28;19900;-50
2022/06/29 09:30:29;;;;;;;;;;;27.20;91.00;;;;;;5068011;28;20137;-55
2022/06/29 09:33:04;;;;;;;;;;;27.20;91.20;;;;;;5067780;28;19900;-54
2022/06/29 09:35:30;;;;;;;;;;;27.20;91.30;;;;;;5067494;28;19909;-62
2022/06/29 09:38:15;;;;;;;;;;;27.20;91.30;;;;;;5067428;28;19904;-47
2022/06/29 09:41:01;;;;;;;;;;;27.20;91.40;;;;;;5067534;28;19913;-53
2022/06/29 09:43:28;;;;;;;;;;;27.20;91.40;;;;;;5060530;28;19907;-53
2022/06/29 09:45:55;;;;;;;;;;;27.20;91.50;;;;;;5067729;28;20224;-50
2022/06/29 09:48:22;;;;;;;;;;;27.20;91.60;;;;;;5067618;28;20169;-50
2022/06/29 09:50:52;;;;;;;;;;;27.20;91.80;;;;;;5067341;28;19951;-49
2022/06/29 09:53:18;;;;;;;;;;;27.20;91.80;;;;;;5067499;28;20207;-56
2022/06/29 09:55:48;;;;;;;;;;;27.10;92.10;;;;;;5066925;28;19950;-53
2022/06/29 09:58:18;;;;;;;;;;;27.10;92.00;;;;;;5067104;28;19909;-50
2022/06/29 10:03:31;;;;;;;;;;;27.10;92.10;;;;;;5067201;28;19943;-48
2022/06/29 10:06:05;;;;;;;;;;;27.10;92.10;;;;;;5066799;28;19908;-49
2022/06/29 10:08:32;;;;;;;;;;;27.10;92.20;;;;;;5067195;28;19900;-50
2022/06/29 10:13:39;;;;;;;;;;;27.10;92.20;;;;;;5066804;28;19975;-55
2022/06/29 10:13:49;;;;;;;;;;;27.10;92.30;;;;;;5066991;28;19901;-54
2022/06/29 10:16:21;;;;;;;;;;;27.10;92.30;;;;;;5066644;28;19943;-56
2022/06/29 10:18:47;;;;;;;;;;;27.10;92.20;;;;;;5067207;28;20234;-47
2022/06/29 10:21:22;;;;;;;;;;;27.10;92.20;;;;;;5067216;28;19915;-50
2022/06/29 10:23:52;;;;;;;;;;;27.10;92.10;;;;;;5067333;28;19901;-53
2022/06/29 10:29:05;;;;;;;;;;;27.10;92.10;;;;;;5067075;28;19915;-51
2022/06/29 10:31:50;;;;;;;;;;;27.00;92.00;;;;;;5066957;28;20131;-55
2022/06/29 10:34:31;;;;;;;;;;;27.00;91.90;;;;;;5066955;28;19913;-52
2022/06/29 10:37:07;;;;;;;;;;;27.00;91.90;;;;;;5066409;28;19959;-55
2022/06/29 10:39:42;;;;;;;;;;;27.00;91.90;;;;;;5066915;28;19908;-49
2022/06/29 10:45:18;;;;;;;;;;;27.00;91.90;;;;;;5066707;28;19920;-47
2022/06/29 10:47:47;;;;;;;;;;;27.00;91.90;;;;;;5066025;28;19900;-49
2022/06/29 10:50:25;;;;;;;;;;;27.00;91.90;;;;;;5066126;28;19913;-49
2022/06/29 10:53:03;;;;;;;;;;;27.00;91.90;;;;;;5066213;28;19982;-51
2022/06/29 10:55:30;;;;;;;;;;;27.00;91.90;;;;;;5066422;28;19909;-47
2022/06/29 10:57:56;;;;;;;;;;;27.00;91.90;;;;;;5066090;28;19905;-49
2022/06/29 11:00:23;;;;;;;;;;;26.90;91.90;;;;;;5065672;28;19916;-50
2022/06/29 11:02:49;;;;;;;;;;;27.00;91.90;;;;;;5065793;28;19991;-51
2022/06/29 11:05:15;;;;;;;;;;;27.00;92.00;;;;;;5066029;28;19908;-48
2022/06/29 11:13:22;;;;;;;;;;;27.00;92.30;;;;;;5066470;28;19911;-48
2022/06/29 11:15:50;;;;;;;;;;;27.00;92.30;;;;;;5065368;28;19928;-47
2022/06/29 11:18:23;;;;;;;;;;;27.00;92.30;;;;;;5065441;28;19958;-50
2022/06/29 11:20:50;;;;;;;;;;;27.00;92.40;;;;;;5063855;28;19904;-53
2022/06/29 11:23:18;;;;;;;;;;;27.00;92.40;;;;;;5064502;28;20212;-56
2022/06/29 11:25:47;;;;;;;;;;;27.00;92.40;;;;;;5064054;28;19912;-48
2022/06/29 11:28:23;;;;;;;;;;;27.00;92.40;;;;;;5064059;28;19912;-54
2022/06/29 11:31:00;;;;;;;;;;;27.00;92.50;;;;;;5063878;28;19909;-55
2022/06/29 11:33:30;;;;;;;;;;;27.00;92.40;;;;;;5064698;28;19911;-49
2022/06/29 11:35:57;;;;;;;;;;;27.00;92.40;;;;;;5065966;28;19943;-56
2022/06/29 11:38:29;;;;;;;;;;;27.00;92.40;;;;;;5065920;28;19940;-52
2022/06/29 11:40:56;;;;;;;;;;;27.00;92.50;;;;;;5064860;28;19904;-59
2022/06/29 11:43:22;;;;;;;;;;;27.00;92.50;;;;;;5066084;28;19909;-55
2022/06/29 11:45:48;;;;;;;;;;;27.00;92.50;;;;;;5066091;28;20343;-55
2022/06/29 11:48:19;;;;;;;;;;;27.00;92.50;;;;;;5066266;28;19905;-49
2022/06/29 11:50:56;;;;;;;;;;;27.00;92.50;;;;;;5065358;28;19905;-51
2022/06/29 11:53:37;;;;;;;;;;;27.00;92.60;;;;;;5065752;28;20096;-49
2022/06/29 11:56:10;;;;;;;;;;;27.00;92.60;;;;;;5065585;28;19924;-50
2022/06/29 11:58:37;;;;;;;;;;;27.00;92.60;;;;;;5097829;28;20099;-52
2022/06/29 12:01:06;;;;;;;;;;;27.00;92.70;;;;;;5065393;28;19921;-49
2022/06/29 12:03:32;;;;;;;;;;;27.00;92.70;;;;;;5065904;28;19971;-54
2022/06/29 12:05:59;;;;;;;;;;;27.00;92.70;;;;;;5065079;28;19906;-52
2022/06/29 12:08:29;;;;;;;;;;;27.00;92.70;;;;;;5065344;28;19909;-58
2022/06/29 12:10:56;;;;;;;;;;;27.10;92.70;;;;;;5065495;28;19904;-49
2022/06/29 12:13:22;;;;;;;;;;;27.00;92.70;;;;;;5065622;28;19912;-50
2022/06/29 12:15:48;;;;;;;;;;;27.10;92.80;;;;;;5065017;28;19904;-52
2022/06/29 12:18:16;;;;;;;;;;;27.10;92.80;;;;;;5065128;28;20144;-57
2022/06/29 12:20:42;;;;;;;;;;;27.10;92.80;;;;;;5065243;28;20213;-51
2022/06/29 12:23:08;;;;;;;;;;;27.10;92.90;;;;;;5065013;28;19905;-48
2022/06/29 12:25:35;;;;;;;;;;;27.10;93.00;;;;;;5064805;28;19916;-55
2022/06/29 12:28:02;;;;;;;;;;;27.10;93.00;;;;;;5080727;28;20181;-54
2022/06/29 12:30:29;;;;;;;;;;;27.10;93.00;;;;;;5065139;28;20093;-48
2022/06/29 12:32:55;;;;;;;;;;;27.10;93.00;;;;;;5065080;28;19940;-51
2022/06/29 12:35:21;;;;;;;;;;;27.20;92.90;;;;;;5064650;28;19909;-49
2022/06/29 12:37:48;;;;;;;;;;;27.20;92.90;;;;;;5065327;28;19908;-51
2022/06/29 12:40:15;;;;;;;;;;;27.20;92.90;;;;;;5064793;28;19911;-53
2022/06/29 12:42:41;;;;;;;;;;;27.30;92.90;;;;;;5065151;28;19975;-47
2022/06/29 12:45:07;;;;;;;;;;;27.30;92.80;;;;;;5065159;28;19905;-47
2022/06/29 12:47:33;;;;;;;;;;;27.30;92.60;;;;;;5065126;28;19904;-48
2022/06/29 12:50:03;;;;;;;;;;;27.30;92.50;;;;;;5064763;28;19983;-49
2022/06/29 12:52:29;;;;;;;;;;;27.30;92.30;;;;;;5067909;28;19915;-49
2022/06/29 12:54:55;;;;;;;;;;;27.30;92.20;;;;;;5068956;28;19912;-50
2022/06/29 12:57:22;;;;;;;;;;;27.30;92.10;;;;;;5068287;28;19909;-47
2022/06/29 12:59:48;;;;;;;;;;;27.40;92.00;;;;;;5068693;28;19905;-50
2022/06/29 13:02:14;;;;;;;;;;;27.40;91.80;;;;;;5068315;28;19921;-49
2022/06/29 13:04:41;;;;;;;;;;;27.40;91.60;;;;;;5068611;28;19908;-48
2022/06/29 13:07:07;;;;;;;;;;;27.40;91.50;;;;;;5068760;28;19901;-53
2022/06/29 13:09:33;;;;;;;;;;;27.40;91.20;;;;;;5068767;28;19920;-55
2022/06/29 13:11:59;;;;;;;;;;;27.40;91.00;;;;;;5068552;28;19901;-51
2022/06/29 13:14:25;;;;;;;;;;;27.40;90.90;;;;;;5068335;28;20169;-47
2022/06/29 13:16:52;;;;;;;;;;;27.40;90.80;;;;;;5068528;28;19915;-48
2022/06/29 13:19:18;;;;;;;;;;;27.50;90.80;;;;;;5068622;28;19979;-50
2022/06/29 13:21:44;;;;;;;;;;;27.50;90.90;;;;;;5068143;28;19916;-51
2022/06/29 13:24:10;;;;;;;;;;;27.50;90.80;;;;;;5068895;28;19924;-48
2022/06/29 13:26:37;;;;;;;;;;;27.50;90.90;;;;;;5068170;28;19919;-49
2022/06/29 13:29:03;;;;;;;;;;;27.50;90.90;;;;;;5068350;28;20058;-53
2022/06/29 13:31:29;;;;;;;;;;;27.50;90.90;;;;;;5067907;28;20112;-52
2022/06/29 13:33:55;;;;;;;;;;;27.50;90.90;;;;;;5067825;28;20072;-50
2022/06/29 13:36:21;;;;;;;;;;;27.60;91.00;;;;;;5068315;28;19944;-58
2022/06/29 13:38:47;;;;;;;;;;;27.60;90.90;;;;;;5068278;28;19908;-55
2022/06/29 13:41:19;;;;;;;;;;;27.50;90.80;;;;;;5068014;28;19908;-59
2022/06/29 13:43:46;;;;;;;;;;;27.60;90.80;;;;;;5068650;28;19923;-56
2022/06/29 13:46:12;;;;;;;;;;;27.60;90.80;;;;;;5068112;28;19909;-60
2022/06/29 13:48:38;;;;;;;;;;;27.60;90.80;;;;;;5068415;28;19905;-56
2022/06/29 13:51:05;;;;;;;;;;;27.60;90.80;;;;;;5067796;28;19916;-55
2022/06/29 13:53:33;;;;;;;;;;;27.60;90.90;;;;;;5068187;28;19901;-60
2022/06/29 13:56:00;;;;;;;;;;;27.60;90.80;;;;;;5067257;28;19916;-55
2022/06/29 13:58:26;;;;;;;;;;;27.70;90.90;;;;;;5067859;28;20023;-56
2022/06/29 14:00:52;;;;;;;;;;;27.70;90.90;;;;;;5066949;28;19916;-57
2022/06/29 14:03:19;;;;;;;;;;;27.70;90.90;;;;;;5067086;28;19979;-58
2022/06/29 14:05:45;;;;;;;;;;;27.70;90.80;;;;;;5067512;28;19957;-56
2022/06/29 14:08:11;;;;;;;;;;;27.80;90.80;;;;;;5067196;28;20084;-56
2022/06/29 14:10:38;;;;;;;;;;;27.80;90.90;;;;;;5067226;28;20054;-56
2022/06/29 14:13:04;;;;;;;;;;;27.80;90.90;;;;;;5067179;28;19909;-56
2022/06/29 14:15:30;;;;;;;;;;;27.80;90.80;;;;;;5066952;28;19908;-57
2022/06/29 14:17:56;;;;;;;;;;;27.80;90.80;;;;;;5066536;28;20213;-60
2022/06/29 14:20:22;;;;;;;;;;;27.80;90.80;;;;;;5066999;28;19909;-51
2022/06/29 14:22:49;;;;;;;;;;;27.80;90.80;;;;;;5066725;28;19905;-50
2022/06/29 14:25:15;;;;;;;;;;;27.80;90.70;;;;;;5066479;28;19988;-45
2022/06/29 14:27:41;;;;;;;;;;;27.90;90.70;;;;;;5066672;28;19936;-46
2022/06/29 14:30:07;;;;;;;;;;;27.90;90.60;;;;;;5066310;28;19908;-53
2022/06/29 14:32:33;;;;;;;;;;;27.90;90.30;;;;;;5066777;28;19954;-49